CST,Max TemperatureF,Mean TemperatureF,Min TemperatureF,Max Dew PointF,MeanDew PointF,Min DewpointF,Max Humidity, Mean Humidity, Min Humidity, Max Sea Level PressureIn, Mean Sea Level PressureIn, Min Sea Level PressureIn, Max VisibilityMiles, Mean VisibilityMiles, Min VisibilityMiles, Max Wind SpeedMPH, Mean Wind SpeedMPH, Max Gust SpeedMPH,PrecipitationIn, CloudCover, Events, WindDirDegrees
2011-11-1,66,50,33,45,37,32,100,77,32,30.36,30.29,30.23,10,6,0,4,0,,0.00,3,Fog,59
2011-11-2,69,50,32,45,39,30,100,73,35,30.40,30.30,30.20,10,9,5,8,1,,0.00,0,,182
2011-11-3,64,50,37,55,45,37,100,89,49,30.17,30.01,29.85,10,8,3,8,1,,0.27,4,Rain,168
2011-11-4,57,50,42,50,46,41,100,88,72,30.21,30.05,29.89,10,10,4,10,3,16,0.00,7,Rain,7
2011-11-5,66,52,37,46,40,37,100,78,35,30.32,30.25,30.19,10,6,0,7,0,,0.00,3,Fog,170
2011-11-6,64,48,33,45,37,32,100,68,40,30.42,30.35,30.27,10,10,10,8,2,17,0.00,0,,180
2011-11-7,71,52,33,52,43,34,100,78,43,30.42,30.35,30.27,10,8,4,7,0,,0.00,0,,183
2011-11-8,71,55,39,52,46,37,100,81,49,30.29,30.22,30.14,10,7,0,9,1,,0.00,3,Fog,187
2011-11-9,64,52,39,61,49,39,100,86,63,30.12,30.05,29.96,10,7,2,12,2,20,0.07,4,Rain,210
2011-11-10,55,48,42,39,33,23,81,57,36,30.13,30.07,29.98,10,10,10,16,7,25,0.00,5,,331
2011-11-11,53,40,28,28,26,23,93,55,30,30.19,30.13,30.09,10,10,10,8,2,,0.00,0,,238
2011-11-12,64,47,30,37,33,28,100,59,34,30.23,30.18,30.13,10,10,10,13,3,22,0.00,0,,193
2011-11-13,69,62,55,52,41,30,64,49,38,30.13,30.04,29.96,10,10,10,18,10,33,0.00,2,,200
2011-11-14,71,68,64,63,60,55,88,78,69,30.03,29.97,29.90,10,10,10,17,9,29,0.00,6,,199
2011-11-15,68,62,57,66,59,55,100,91,73,30.00,29.93,29.88,10,9,2,12,4,21,0.13,7,Rain,64
2011-11-16,66,58,48,64,56,34,100,94,47,29.99,29.86,29.80,10,9,1,13,4,20,0.51,7,Rain,350
2011-11-17,48,40,32,46,31,19,100,68,37,30.36,30.19,30.00,10,9,5,14,8,22,0.00,4,Rain,344
2011-11-18,53,38,24,30,26,21,100,72,33,30.47,30.37,30.29,10,10,7,8,1,,0.00,0,,164
2011-11-19,62,46,30,48,36,27,100,71,41,30.34,30.28,30.20,10,10,7,8,1,17,0.00,1,,182
2011-11-20,68,62,57,61,57,50,94,79,68,30.29,30.23,30.19,10,10,7,15,6,26,0.00,7,Rain,189
2011-11-21,62,61,59,63,60,57,100,96,94,30.31,30.22,30.17,10,6,2,6,1,,0.08,8,Rain-Thunderstorm,186
2011-11-22,71,64,57,64,61,55,100,92,69,30.14,29.98,29.85,10,9,2,17,3,25,0.30,6,Rain,192
2011-11-23,62,52,39,61,47,39,100,85,67,30.30,30.11,29.85,10,10,7,14,5,25,0.00,6,Rain,328
2011-11-24,62,48,35,45,39,34,100,84,42,30.41,30.36,30.32,10,7,0,5,0,,0.00,3,Fog,255
2011-11-25,66,48,30,43,36,30,100,75,34,30.37,30.30,30.23,10,8,1,10,2,,0.00,0,,171
2011-11-26,66,50,35,52,44,36,100,81,48,30.30,30.21,30.09,10,9,7,8,1,17,0.00,3,,136
2011-11-27,64,55,46,61,54,46,100,92,68,30.04,29.95,29.90,10,8,1,8,2,18,0.23,5,Rain,187
2011-11-28,66,55,44,61,52,41,100,93,73,29.87,29.76,29.64,10,8,1,16,3,24,0.95,8,Rain,188
2011-11-29,46,42,39,37,36,34,93,82,66,29.86,29.77,29.72,10,10,5,15,8,25,0.00,5,Rain,226
2011-11-30,42,36,30,37,34,28,100,84,61,30.21,30.06,29.90,10,10,7,10,4,16,0.00,6,Rain,305